Relevés horaires Bierset (Belgique)


Relevés horaires à Bierset - Mardi 26 Sept. 2023
Heure UTC1 Température [°C] Vent [km/h] Hum. [%] Pres.4 [hPa] Visi. [Km] Nébu. [octa] Préc.5 [mm] Cond.
2m. Res. Ros. Dir.2 Vit. Moy. Raf.3
23:00 16.3 16.3 11.5 SSE 5.6 5.6 11.1 73 1020.7(0.1/3h) 30 3/8 -- --
22:00 16.0 16.0 11.6 S 3.7 7.4 9.3 75 1021(0.6/3h) 30 3/8 -- --
21:00 16.3 16.3 12.6 SSE 5.6 5.6 14.8 79 1020.3(0.5/3h) 30 5/8 -- --
20:00 16.3 16.3 11.6 SO 3.7 3.7 9.3 74 1020.6(1.0/3h) 30 6/8 -- --
19:00 18.9 18.9 12.1 S 3.7 5.6 13.0 65 1020.2(0.4/3h) 30 6/8 -- --
18:00 19.4 19.4 12.6 SSE 3.7 7.4 14.8 65 1019.5(-0.3/3h) 30 6/8 0/12h
--
17:00 20.4 20.4 11.9 S 5.6 5.6 11.1 58 1019.3(-0.5/3h) 30 7/8 -- --
16:00 20.4 20.4 11.9 SO 5.6 5.6 7.4 58 1019.6(-0.3/3h) 30 7/8 -- --
15:00 20.8 20.8 12.3 SSO 5.6 7.4 14.8 58 1019.7(-0.4/3h) 30 7/8 -- --
14:00 21.3 21.3 12.0 S 5.6 5.6 14.8 55 1019.7(-0.6/3h) 30 6/8 -- --
13:00 21.3 21.3 11.3 S 5.6 7.4 14.8 53 1019.8(-0.7/3h) 30 6/8 -- --
12:00 21.0 21.0 11.1 S 7.4 11.1 18.5 53 1020.2(-0.7/3h) 30 6/8 0/6h
--
11:00 20.6 20.6 10.6 S 9.3 9.3 18.5 53 1020.4(-0.5/3h) 30 5/8 -- --
10:00 19.5 19.5 10.1 S 9.3 9.3 18.5 55 1020.7(-0.2/3h) 30 5/8 -- --
09:00 17.7 17.7 10.1 S 7.4 7.4 18.5 61 1021.2(-0.1/3h) 30 5/8 -- --
08:00 15.0 15.0 10.1 SSE 3.7 7.4 18.5 72 1021.3(-0.1/3h) 30 5/8 -- --
07:00 13.0 12.6 9.2 SSE 7.4 7.4 18.5 78 1021.4(-0.5/3h) 30 5/8 -- --
06:00 12.2 11.7 9.0 SE 7.4 9.3 20.4 81 1021.5(-0.5/3h) 30 4/8 0/12h
--
05:00 12.1 11.6 9.5 SSE 7.4 9.3 20.4 84 1021.6(-1.1/3h) 30 2/8 -- --
04:00 12.8 12.4 9.8 SSE 7.4 9.3 16.7 82 1021.9(-0.9/3h) 30 1/8 -- --
03:00 13.5 13.2 9.6 SSE 7.4 7.4 14.8 77 1021.9(-0.9/3h) 30 1/8 -- --
02:00 13.4 13.4 10.3 SSE 5.6 7.4 14.8 81 1022.6(0.2/3h) 30 1/8 -- --
01:00 13.4 13.4 10.7 SSE 5.6 5.6 11.1 84 1022.8(-0.3/3h) 30 1/8 -- --
00:00 14.5 14.5 10.5 SSE 5.6 7.4 11.1 77 1022.8(-0.5/3h) 30 1/8 0/6h
0/24h
--

1 Coordinated Universal Time. Actuellement il est 23:00 locale et 21:00 UTC.

2 Le vent souffle depuis la direction indiquée vers la direction oposée.

3 Les rafales max. sont disponible 40 min après l'heure du relevé.

4 Pour les stations d'altitude (plus de 600m) le géopotentiel du niveau le plus proche de la pression obligatoire est indiqué.

5 Les stations disposant d'un diffuseur peuvent indiquer "trace". Cela signifie que des précipitations ont touchés le sol mais que la quantité est inférieure à 0.1 mm.

Récapitulatif de la journée
Température [°C] Vent [km/h] Ensoleillement4 [h] Precipitations totale5 [mm] Pression [Hpa]
Min1 Max.2 Moy.3 Max. Min Max.
11.9 22.0 7.3 20.4 0 h 0 min 0 1019.3 1022.8

1 Température minimale relevée entre 18:00 UTC la veille et 18:00 UTC le jour donné.

2 Température maximale relevée entre 06:00 UTC le jour donné et 06:00 UTC le lendemain.

3 Vent moyen de la journée basé sur les relevés horaires.

4 Ensoleillement en heures relevé entre 06:00 UTC la veille et 06:00 UTC le jour donné.

5 Précipitations totales tombées entre 06:00 UTC la jour donné et 06:00 UTC le lendemain.

Graphiques horaires